sensor_id;sensor_type;location;lat;lon;timestamp;P1;P2;P0
75960;PMS7003;64644;48.914;2.254;2023-12-20T00:00:28;5.50;5.50;4.50
75960;PMS7003;64644;48.914;2.254;2023-12-20T00:02:54;5.00;5.00;4.00
75960;PMS7003;64644;48.914;2.254;2023-12-20T00:05:30;5.75;4.50;4.00
75960;PMS7003;64644;48.914;2.254;2023-12-20T00:08:23;5.25;5.00;2.00
75960;PMS7003;64644;48.914;2.254;2023-12-20T00:11:18;9.00;4.00;2.00
75960;PMS7003;64644;48.914;2.254;2023-12-20T00:13:46;4.25;4.25;2.50
75960;PMS7003;64644;48.914;2.254;2023-12-20T00:16:11;1.00;1.00;0.50
75960;PMS7003;64644;48.914;2.254;2023-12-20T00:18:37;2.50;1.50;1.00
75960;PMS7003;64644;48.914;2.254;2023-12-20T00:21:02;3.75;3.75;1.00
75960;PMS7003;64644;48.914;2.254;2023-12-20T00:23:28;1.75;1.75;1.00
75960;PMS7003;64644;48.914;2.254;2023-12-20T00:26:03;1.00;0.00;0.00
75960;PMS7003;64644;48.914;2.254;2023-12-20T00:28:28;1.50;1.00;0.00
75960;PMS7003;64644;48.914;2.254;2023-12-20T00:30:54;2.00;1.25;1.00
75960;PMS7003;64644;48.914;2.254;2023-12-20T00:33:19;3.00;2.00;0.75
75960;PMS7003;64644;48.914;2.254;2023-12-20T00:35:44;2.00;1.00;0.50
75960;PMS7003;64644;48.914;2.254;2023-12-20T00:38:10;1.75;1.75;1.00
75960;PMS7003;64644;48.914;2.254;2023-12-20T00:40:36;0.00;0.00;0.00
75960;PMS7003;64644;48.914;2.254;2023-12-20T00:43:02;4.25;1.00;0.00
75960;PMS7003;64644;48.914;2.254;2023-12-20T00:45:27;3.50;1.25;1.00
75960;PMS7003;64644;48.914;2.254;2023-12-20T00:47:53;2.00;2.00;0.00
75960;PMS7003;64644;48.914;2.254;2023-12-20T01:03:54;1.00;0.00;0.00
75960;PMS7003;64644;48.914;2.254;2023-12-20T01:06:20;0.00;0.00;0.00
75960;PMS7003;64644;48.914;2.254;2023-12-20T01:08:53;0.00;0.00;0.00
75960;PMS7003;64644;48.914;2.254;2023-12-20T01:11:18;0.00;0.00;0.00
75960;PMS7003;64644;48.914;2.254;2023-12-20T01:13:44;1.50;0.00;0.00
75960;PMS7003;64644;48.914;2.254;2023-12-20T01:16:10;3.50;1.00;0.00
75960;PMS7003;64644;48.914;2.254;2023-12-20T01:18:36;2.00;1.00;0.00
75960;PMS7003;64644;48.914;2.254;2023-12-20T01:21:02;1.50;1.50;0.50
75960;PMS7003;64644;48.914;2.254;2023-12-20T01:23:28;0.75;0.75;0.00
75960;PMS7003;64644;48.914;2.254;2023-12-20T01:25:53;1.00;0.00;0.00
75960;PMS7003;64644;48.914;2.254;2023-12-20T01:28:19;2.50;1.00;0.75
75960;PMS7003;64644;48.914;2.254;2023-12-20T01:30:44;0.75;0.75;0.00
75960;PMS7003;64644;48.914;2.254;2023-12-20T01:33:10;1.50;0.50;0.00
75960;PMS7003;64644;48.914;2.254;2023-12-20T01:35:35;2.00;1.00;0.75
75960;PMS7003;64644;48.914;2.254;2023-12-20T01:38:01;1.00;1.00;0.00
75960;PMS7003;64644;48.914;2.254;2023-12-20T01:40:26;1.25;0.00;0.00
75960;PMS7003;64644;48.914;2.254;2023-12-20T01:42:58;1.75;1.75;0.75
75960;PMS7003;64644;48.914;2.254;2023-12-20T01:45:24;1.00;0.00;0.00
75960;PMS7003;64644;48.914;2.254;2023-12-20T01:47:50;0.00;0.00;0.00
75960;PMS7003;64644;48.914;2.254;2023-12-20T01:50:15;1.00;1.00;0.00
75960;PMS7003;64644;48.914;2.254;2023-12-20T01:52:42;1.00;1.00;0.50
75960;PMS7003;64644;48.914;2.254;2023-12-20T01:55:08;2.75;1.50;0.00
75960;PMS7003;64644;48.914;2.254;2023-12-20T01:57:38;0.00;0.00;0.00
75960;PMS7003;64644;48.914;2.254;2023-12-20T02:00:07;1.00;1.00;0.00
75960;PMS7003;64644;48.914;2.254;2023-12-20T02:02:34;0.00;0.00;0.00
75960;PMS7003;64644;48.914;2.254;2023-12-20T02:05:03;1.00;1.00;0.00
75960;PMS7003;64644;48.914;2.254;2023-12-20T02:07:30;0.75;0.75;0.50
75960;PMS7003;64644;48.914;2.254;2023-12-20T02:09:56;0.00;0.00;0.00
75960;PMS7003;64644;48.914;2.254;2023-12-20T02:12:21;1.00;1.00;0.00
75960;PMS7003;64644;48.914;2.254;2023-12-20T02:14:47;4.75;1.25;0.25
75960;PMS7003;64644;48.914;2.254;2023-12-20T02:17:13;1.75;1.75;1.00
75960;PMS7003;64644;48.914;2.254;2023-12-20T02:19:38;1.00;1.00;0.25
75960;PMS7003;64644;48.914;2.254;2023-12-20T02:22:13;4.00;2.00;1.00
75960;PMS7003;64644;48.914;2.254;2023-12-20T02:24:38;0.75;0.50;0.50
75960;PMS7003;64644;48.914;2.254;2023-12-20T02:27:08;4.00;2.00;0.75
75960;PMS7003;64644;48.914;2.254;2023-12-20T02:29:34;1.00;1.00;1.00
75960;PMS7003;64644;48.914;2.254;2023-12-20T02:32:00;1.25;1.25;0.00
75960;PMS7003;64644;48.914;2.254;2023-12-20T02:34:26;1.00;1.00;0.75
75960;PMS7003;64644;48.914;2.254;2023-12-20T02:36:51;3.50;1.75;0.00
75960;PMS7003;64644;48.914;2.254;2023-12-20T02:39:18;2.00;0.75;0.00
75960;PMS7003;64644;48.914;2.254;2023-12-20T02:41:44;3.00;1.50;0.75
75960;PMS7003;64644;48.914;2.254;2023-12-20T02:44:09;2.00;2.00;1.00
75960;PMS7003;64644;48.914;2.254;2023-12-20T02:46:34;0.00;0.00;0.00
75960;PMS7003;64644;48.914;2.254;2023-12-20T02:49:00;1.00;1.00;1.00
75960;PMS7003;64644;48.914;2.254;2023-12-20T02:51:25;0.75;0.00;0.00
75960;PMS7003;64644;48.914;2.254;2023-12-20T02:53:50;0.00;0.00;0.00
75960;PMS7003;64644;48.914;2.254;2023-12-20T02:56:16;4.25;1.00;0.00
75960;PMS7003;64644;48.914;2.254;2023-12-20T02:58:41;3.50;1.00;0.50
75960;PMS7003;64644;48.914;2.254;2023-12-20T03:01:07;4.00;2.00;1.00
75960;PMS7003;64644;48.914;2.254;2023-12-20T03:03:32;1.00;1.00;0.00
75960;PMS7003;64644;48.914;2.254;2023-12-20T03:05:57;1.25;1.00;1.00
75960;PMS7003;64644;48.914;2.254;2023-12-20T03:08:23;1.00;1.00;1.00
75960;PMS7003;64644;48.914;2.254;2023-12-20T03:10:48;1.50;0.50;0.50
75960;PMS7003;64644;48.914;2.254;2023-12-20T03:13:14;1.00;1.00;1.00
75960;PMS7003;64644;48.914;2.254;2023-12-20T03:15:39;1.00;1.00;0.00
75960;PMS7003;64644;48.914;2.254;2023-12-20T03:18:05;3.00;1.75;0.75
75960;PMS7003;64644;48.914;2.254;2023-12-20T03:20:31;2.00;1.00;0.25
75960;PMS7003;64644;48.914;2.254;2023-12-20T03:22:59;0.50;0.50;0.00
75960;PMS7003;64644;48.914;2.254;2023-12-20T03:25:25;1.00;1.00;0.50
75960;PMS7003;64644;48.914;2.254;2023-12-20T03:27:50;1.50;1.00;0.25
75960;PMS7003;64644;48.914;2.254;2023-12-20T03:30:15;1.50;1.50;0.25
75960;PMS7003;64644;48.914;2.254;2023-12-20T03:32:41;1.00;0.00;0.00
75960;PMS7003;64644;48.914;2.254;2023-12-20T03:35:06;0.50;0.50;0.00
75960;PMS7003;64644;48.914;2.254;2023-12-20T03:37:31;0.25;0.25;0.25
75960;PMS7003;64644;48.914;2.254;2023-12-20T03:39:57;0.75;0.75;0.00
75960;PMS7003;64644;48.914;2.254;2023-12-20T03:42:22;0.50;0.50;0.50
75960;PMS7003;64644;48.914;2.254;2023-12-20T03:44:47;2.00;0.50;0.00
75960;PMS7003;64644;48.914;2.254;2023-12-20T03:47:13;0.50;0.50;0.50
75960;PMS7003;64644;48.914;2.254;2023-12-20T03:49:38;1.00;1.00;0.75
75960;PMS7003;64644;48.914;2.254;2023-12-20T03:52:04;2.00;0.00;0.00
75960;PMS7003;64644;48.914;2.254;2023-12-20T03:54:30;1.00;1.00;1.00
75960;PMS7003;64644;48.914;2.254;2023-12-20T03:56:55;4.50;1.00;0.00
75960;PMS7003;64644;48.914;2.254;2023-12-20T03:59:20;4.25;1.00;0.00
75960;PMS7003;64644;48.914;2.254;2023-12-20T04:01:46;1.00;1.00;0.75
75960;PMS7003;64644;48.914;2.254;2023-12-20T04:04:11;3.75;2.00;0.50
75960;PMS7003;64644;48.914;2.254;2023-12-20T04:06:37;4.00;0.25;0.00
75960;PMS7003;64644;48.914;2.254;2023-12-20T04:09:03;0.00;0.00;0.00
75960;PMS7003;64644;48.914;2.254;2023-12-20T04:11:28;1.50;1.00;0.00
75960;PMS7003;64644;48.914;2.254;2023-12-20T04:13:54;1.00;0.25;0.00
75960;PMS7003;64644;48.914;2.254;2023-12-20T04:16:19;1.50;0.75;0.00
75960;PMS7003;64644;48.914;2.254;2023-12-20T04:18:44;0.50;0.50;0.00
75960;PMS7003;64644;48.914;2.254;2023-12-20T04:21:10;0.00;0.00;0.00
75960;PMS7003;64644;48.914;2.254;2023-12-20T04:23:35;0.00;0.00;0.00
75960;PMS7003;64644;48.914;2.254;2023-12-20T04:26:00;0.00;0.00;0.00
75960;PMS7003;64644;48.914;2.254;2023-12-20T04:28:26;2.00;1.00;1.00
75960;PMS7003;64644;48.914;2.254;2023-12-20T04:30:51;3.00;3.00;1.00
75960;PMS7003;64644;48.914;2.254;2023-12-20T04:33:16;1.00;1.00;0.00
75960;PMS7003;64644;48.914;2.254;2023-12-20T04:35:42;2.00;2.00;1.00
75960;PMS7003;64644;48.914;2.254;2023-12-20T04:38:08;1.00;0.25;0.00
75960;PMS7003;64644;48.914;2.254;2023-12-20T04:40:34;0.00;0.00;0.00
75960;PMS7003;64644;48.914;2.254;2023-12-20T04:42:59;1.00;1.00;0.00
75960;PMS7003;64644;48.914;2.254;2023-12-20T04:45:24;4.00;1.00;0.00
75960;PMS7003;64644;48.914;2.254;2023-12-20T04:47:50;2.00;0.50;0.25
75960;PMS7003;64644;48.914;2.254;2023-12-20T04:50:16;1.00;1.00;0.00
75960;PMS7003;64644;48.914;2.254;2023-12-20T04:52:41;2.00;1.00;0.25
75960;PMS7003;64644;48.914;2.254;2023-12-20T04:55:07;0.00;0.00;0.00
75960;PMS7003;64644;48.914;2.254;2023-12-20T04:57:33;2.00;2.00;0.25
75960;PMS7003;64644;48.914;2.254;2023-12-20T04:59:59;2.00;0.25;0.00
75960;PMS7003;64644;48.914;2.254;2023-12-20T05:02:24;1.00;0.00;0.00
75960;PMS7003;64644;48.914;2.254;2023-12-20T05:04:50;1.25;1.00;1.00
75960;PMS7003;64644;48.914;2.254;2023-12-20T05:07:15;1.50;1.50;0.00
75960;PMS7003;64644;48.914;2.254;2023-12-20T05:09:41;1.00;1.00;0.00
75960;PMS7003;64644;48.914;2.254;2023-12-20T05:12:06;1.00;1.00;0.50
75960;PMS7003;64644;48.914;2.254;2023-12-20T05:14:32;0.50;0.50;0.00
75960;PMS7003;64644;48.914;2.254;2023-12-20T05:16:57;0.25;0.25;0.00
75960;PMS7003;64644;48.914;2.254;2023-12-20T05:19:23;0.75;0.75;0.00
75960;PMS7003;64644;48.914;2.254;2023-12-20T05:21:49;2.00;0.75;0.00
75960;PMS7003;64644;48.914;2.254;2023-12-20T05:24:14;2.50;0.75;0.50
75960;PMS7003;64644;48.914;2.254;2023-12-20T05:26:39;1.00;1.00;0.00
75960;PMS7003;64644;48.914;2.254;2023-12-20T05:29:05;2.00;1.00;0.00
75960;PMS7003;64644;48.914;2.254;2023-12-20T05:31:31;1.50;0.50;0.00
75960;PMS7003;64644;48.914;2.254;2023-12-20T05:33:56;2.00;1.00;0.00
75960;PMS7003;64644;48.914;2.254;2023-12-20T05:36:22;0.50;0.50;0.00
75960;PMS7003;64644;48.914;2.254;2023-12-20T05:38:47;1.00;0.00;0.00
75960;PMS7003;64644;48.914;2.254;2023-12-20T05:41:13;0.00;0.00;0.00
75960;PMS7003;64644;48.914;2.254;2023-12-20T05:43:38;0.00;0.00;0.00
75960;PMS7003;64644;48.914;2.254;2023-12-20T05:46:04;1.00;1.00;0.00
75960;PMS7003;64644;48.914;2.254;2023-12-20T05:48:29;2.75;1.00;0.00
75960;PMS7003;64644;48.914;2.254;2023-12-20T05:50:55;4.00;1.00;0.00
75960;PMS7003;64644;48.914;2.254;2023-12-20T05:53:20;4.50;2.00;1.00
75960;PMS7003;64644;48.914;2.254;2023-12-20T05:55:45;2.00;2.00;1.00
75960;PMS7003;64644;48.914;2.254;2023-12-20T05:58:11;2.00;0.50;0.00
75960;PMS7003;64644;48.914;2.254;2023-12-20T06:00:36;0.25;0.25;0.00
75960;PMS7003;64644;48.914;2.254;2023-12-20T06:03:01;0.25;0.25;0.00
75960;PMS7003;64644;48.914;2.254;2023-12-20T06:05:27;0.75;0.75;0.75
75960;PMS7003;64644;48.914;2.254;2023-12-20T06:07:52;1.00;1.00;0.00
75960;PMS7003;64644;48.914;2.254;2023-12-20T06:10:19;1.25;1.25;1.00
75960;PMS7003;64644;48.914;2.254;2023-12-20T06:12:45;4.25;1.25;0.00
75960;PMS7003;64644;48.914;2.254;2023-12-20T06:15:12;2.75;0.75;0.00
75960;PMS7003;64644;48.914;2.254;2023-12-20T06:17:42;4.50;1.50;0.75
75960;PMS7003;64644;48.914;2.254;2023-12-20T06:20:08;3.50;1.75;1.00
75960;PMS7003;64644;48.914;2.254;2023-12-20T06:22:35;1.00;1.00;0.00
75960;PMS7003;64644;48.914;2.254;2023-12-20T06:25:01;2.00;2.00;0.00
75960;PMS7003;64644;48.914;2.254;2023-12-20T06:27:27;1.00;1.00;0.75
75960;PMS7003;64644;48.914;2.254;2023-12-20T06:29:53;1.75;1.25;1.00
75960;PMS7003;64644;48.914;2.254;2023-12-20T06:32:19;4.00;1.50;0.50
75960;PMS7003;64644;48.914;2.254;2023-12-20T06:34:45;3.75;1.00;0.25
75960;PMS7003;64644;48.914;2.254;2023-12-20T06:37:10;1.25;1.25;1.00
75960;PMS7003;64644;48.914;2.254;2023-12-20T06:39:35;4.33;1.00;0.00
75960;PMS7003;64644;48.914;2.254;2023-12-20T06:42:01;3.00;3.00;1.00
75960;PMS7003;64644;48.914;2.254;2023-12-20T06:44:26;1.50;1.00;0.75
75960;PMS7003;64644;48.914;2.254;2023-12-20T06:46:52;3.00;1.00;0.00
75960;PMS7003;64644;48.914;2.254;2023-12-20T06:49:17;0.25;0.25;0.25
75960;PMS7003;64644;48.914;2.254;2023-12-20T06:51:43;1.50;1.50;0.00
75960;PMS7003;64644;48.914;2.254;2023-12-20T06:54:08;3.00;3.00;1.00
75960;PMS7003;64644;48.914;2.254;2023-12-20T06:56:34;2.00;2.00;0.00
75960;PMS7003;64644;48.914;2.254;2023-12-20T06:58:59;3.00;3.00;1.00
75960;PMS7003;64644;48.914;2.254;2023-12-20T07:01:24;4.00;4.00;1.00
75960;PMS7003;64644;48.914;2.254;2023-12-20T07:03:50;1.00;1.00;0.00
75960;PMS7003;64644;48.914;2.254;2023-12-20T07:06:15;1.00;1.00;0.33
75960;PMS7003;64644;48.914;2.254;2023-12-20T07:08:41;5.00;2.00;1.00
75960;PMS7003;64644;48.914;2.254;2023-12-20T07:11:06;1.75;1.00;1.00
75960;PMS7003;64644;48.914;2.254;2023-12-20T07:13:32;2.00;1.00;1.00
75960;PMS7003;64644;48.914;2.254;2023-12-20T07:15:57;2.50;0.25;0.25
75960;PMS7003;64644;48.914;2.254;2023-12-20T07:18:22;2.00;2.00;1.00
75960;PMS7003;64644;48.914;2.254;2023-12-20T07:20:48;2.00;2.00;2.00
75960;PMS7003;64644;48.914;2.254;2023-12-20T07:23:13;1.00;1.00;1.00
75960;PMS7003;64644;48.914;2.254;2023-12-20T07:25:38;4.00;4.00;1.00
75960;PMS7003;64644;48.914;2.254;2023-12-20T07:28:04;2.00;2.00;1.00
75960;PMS7003;64644;48.914;2.254;2023-12-20T07:30:29;4.00;2.00;1.25
75960;PMS7003;64644;48.914;2.254;2023-12-20T07:32:55;4.00;2.00;1.00
75960;PMS7003;64644;48.914;2.254;2023-12-20T07:35:20;3.00;1.50;0.00
75960;PMS7003;64644;48.914;2.254;2023-12-20T07:37:46;5.00;1.50;1.00
75960;PMS7003;64644;48.914;2.254;2023-12-20T07:40:11;1.00;1.00;0.25
75960;PMS7003;64644;48.914;2.254;2023-12-20T07:42:36;1.75;1.50;1.00
75960;PMS7003;64644;48.914;2.254;2023-12-20T07:45:02;2.00;2.00;2.00
75960;PMS7003;64644;48.914;2.254;2023-12-20T07:47:28;1.00;1.00;0.50
75960;PMS7003;64644;48.914;2.254;2023-12-20T07:49:53;3.25;1.50;1.00
75960;PMS7003;64644;48.914;2.254;2023-12-20T07:52:19;2.00;2.00;1.75
75960;PMS7003;64644;48.914;2.254;2023-12-20T07:54:45;4.00;2.00;1.00
75960;PMS7003;64644;48.914;2.254;2023-12-20T07:57:10;1.00;1.00;0.75
75960;PMS7003;64644;48.914;2.254;2023-12-20T07:59:36;3.25;2.50;2.00
75960;PMS7003;64644;48.914;2.254;2023-12-20T08:02:02;2.75;2.00;1.75
75960;PMS7003;64644;48.914;2.254;2023-12-20T08:04:27;1.00;1.00;1.00
75960;PMS7003;64644;48.914;2.254;2023-12-20T08:06:53;2.50;2.50;2.00
75960;PMS7003;64644;48.914;2.254;2023-12-20T08:09:18;2.00;2.00;1.00
75960;PMS7003;64644;48.914;2.254;2023-12-20T08:11:45;4.00;2.00;1.75
75960;PMS7003;64644;48.914;2.254;2023-12-20T08:14:10;4.00;4.00;1.00
75960;PMS7003;64644;48.914;2.254;2023-12-20T08:16:36;1.00;1.00;0.75
75960;PMS7003;64644;48.914;2.254;2023-12-20T08:19:01;5.00;3.50;2.50
75960;PMS7003;64644;48.914;2.254;2023-12-20T08:21:26;1.67;1.67;1.67
75960;PMS7003;64644;48.914;2.254;2023-12-20T08:23:52;5.00;2.00;1.00
75960;PMS7003;64644;48.914;2.254;2023-12-20T08:26:18;3.25;1.25;1.00
75960;PMS7003;64644;48.914;2.254;2023-12-20T08:28:45;4.00;1.25;1.25
75960;PMS7003;64644;48.914;2.254;2023-12-20T08:31:14;4.25;4.25;2.00
75960;PMS7003;64644;48.914;2.254;2023-12-20T08:33:41;7.00;4.00;3.00
75960;PMS7003;64644;48.914;2.254;2023-12-20T08:36:08;5.00;5.00;2.00
75960;PMS7003;64644;48.914;2.254;2023-12-20T08:38:34;4.00;4.00;2.00
75960;PMS7003;64644;48.914;2.254;2023-12-20T08:40:59;5.00;2.00;1.75
75960;PMS7003;64644;48.914;2.254;2023-12-20T08:43:24;4.25;4.25;2.00
75960;PMS7003;64644;48.914;2.254;2023-12-20T08:45:50;3.75;2.50;2.00
75960;PMS7003;64644;48.914;2.254;2023-12-20T08:48:15;5.00;2.50;1.00
75960;PMS7003;64644;48.914;2.254;2023-12-20T08:50:40;2.00;1.00;1.00
75960;PMS7003;64644;48.914;2.254;2023-12-20T08:53:06;4.25;4.00;2.00
75960;PMS7003;64644;48.914;2.254;2023-12-20T08:55:31;3.25;3.25;3.00
75960;PMS7003;64644;48.914;2.254;2023-12-20T08:57:57;5.00;4.00;2.00
75960;PMS7003;64644;48.914;2.254;2023-12-20T09:00:22;5.00;2.00;1.00
75960;PMS7003;64644;48.914;2.254;2023-12-20T09:02:52;2.50;2.00;1.00
75960;PMS7003;64644;48.914;2.254;2023-12-20T09:05:17;2.00;2.00;1.50
75960;PMS7003;64644;48.914;2.254;2023-12-20T09:07:43;3.50;1.00;1.00
75960;PMS7003;64644;48.914;2.254;2023-12-20T09:10:08;1.00;1.00;0.00
75960;PMS7003;64644;48.914;2.254;2023-12-20T09:12:34;2.00;2.00;1.00
75960;PMS7003;64644;48.914;2.254;2023-12-20T09:14:59;1.25;1.25;1.00
75960;PMS7003;64644;48.914;2.254;2023-12-20T09:17:27;2.00;2.00;1.00
75960;PMS7003;64644;48.914;2.254;2023-12-20T09:19:52;1.00;1.00;1.00
75960;PMS7003;64644;48.914;2.254;2023-12-20T09:22:19;1.00;1.00;0.50
75960;PMS7003;64644;48.914;2.254;2023-12-20T09:24:44;2.50;2.00;1.00
75960;PMS7003;64644;48.914;2.254;2023-12-20T09:27:09;2.00;2.00;1.00
75960;PMS7003;64644;48.914;2.254;2023-12-20T09:29:35;2.00;1.50;1.00
75960;PMS7003;64644;48.914;2.254;2023-12-20T09:32:00;4.00;1.50;1.00
75960;PMS7003;64644;48.914;2.254;2023-12-20T09:34:26;5.00;2.00;1.00
75960;PMS7003;64644;48.914;2.254;2023-12-20T09:36:52;2.00;1.25;1.00
75960;PMS7003;64644;48.914;2.254;2023-12-20T09:39:18;0.50;0.50;0.50
75960;PMS7003;64644;48.914;2.254;2023-12-20T09:41:45;4.00;1.50;1.00
75960;PMS7003;64644;48.914;2.254;2023-12-20T09:44:18;1.00;1.00;0.00
75960;PMS7003;64644;48.914;2.254;2023-12-20T09:46:44;1.00;1.00;0.75
75960;PMS7003;64644;48.914;2.254;2023-12-20T09:49:10;2.00;2.00;1.00
75960;PMS7003;64644;48.914;2.254;2023-12-20T09:51:37;4.50;1.75;1.00
75960;PMS7003;64644;48.914;2.254;2023-12-20T09:54:03;1.00;1.00;1.00
75960;PMS7003;64644;48.914;2.254;2023-12-20T09:56:29;3.25;3.25;1.00
75960;PMS7003;64644;48.914;2.254;2023-12-20T09:58:55;6.00;2.00;1.00
75960;PMS7003;64644;48.914;2.254;2023-12-20T10:01:21;3.25;1.00;1.00
75960;PMS7003;64644;48.914;2.254;2023-12-20T10:03:47;8.00;4.00;1.00
75960;PMS7003;64644;48.914;2.254;2023-12-20T10:06:15;0.00;0.00;0.00
75960;PMS7003;64644;48.914;2.254;2023-12-20T10:08:40;2.75;1.25;1.00
75960;PMS7003;64644;48.914;2.254;2023-12-20T10:11:06;1.75;1.00;1.00
75960;PMS7003;64644;48.914;2.254;2023-12-20T10:13:31;1.75;1.75;1.00
75960;PMS7003;64644;48.914;2.254;2023-12-20T10:15:56;1.75;0.50;0.00
75960;PMS7003;64644;48.914;2.254;2023-12-20T10:18:22;1.00;1.00;1.00
75960;PMS7003;64644;48.914;2.254;2023-12-20T10:20:48;2.00;2.00;1.00
75960;PMS7003;64644;48.914;2.254;2023-12-20T10:23:13;1.00;1.00;0.25
75960;PMS7003;64644;48.914;2.254;2023-12-20T10:25:40;1.50;1.50;1.00
75960;PMS7003;64644;48.914;2.254;2023-12-20T10:28:13;1.75;1.75;1.00
75960;PMS7003;64644;48.914;2.254;2023-12-20T10:30:40;2.50;2.00;1.00
75960;PMS7003;64644;48.914;2.254;2023-12-20T10:33:06;4.25;4.00;1.00
75960;PMS7003;64644;48.914;2.254;2023-12-20T10:35:35;2.00;2.00;1.75
75960;PMS7003;64644;48.914;2.254;2023-12-20T10:38:05;4.00;1.00;1.00
75960;PMS7003;64644;48.914;2.254;2023-12-20T10:40:33;6.00;2.00;0.00
75960;PMS7003;64644;48.914;2.254;2023-12-20T10:43:01;3.50;1.50;1.00
75960;PMS7003;64644;48.914;2.254;2023-12-20T10:45:27;2.50;2.50;1.75
75960;PMS7003;64644;48.914;2.254;2023-12-20T10:47:53;1.00;1.00;0.25
75960;PMS7003;64644;48.914;2.254;2023-12-20T10:50:19;4.50;2.00;1.50
75960;PMS7003;64644;48.914;2.254;2023-12-20T10:52:45;0.25;0.25;0.00
75960;PMS7003;64644;48.914;2.254;2023-12-20T10:55:12;8.25;4.50;3.50
75960;PMS7003;64644;48.914;2.254;2023-12-20T10:57:37;2.50;2.50;1.75
75960;PMS7003;64644;48.914;2.254;2023-12-20T11:00:03;5.00;5.00;2.75
75960;PMS7003;64644;48.914;2.254;2023-12-20T11:02:36;3.25;3.25;1.50
75960;PMS7003;64644;48.914;2.254;2023-12-20T11:07:48;4.25;2.50;1.00
75960;PMS7003;64644;48.914;2.254;2023-12-20T11:10:29;3.50;1.50;1.00
75960;PMS7003;64644;48.914;2.254;2023-12-20T11:15:26;6.00;6.00;2.00
75960;PMS7003;64644;48.914;2.254;2023-12-20T11:17:55;4.00;2.25;1.00
75960;PMS7003;64644;48.914;2.254;2023-12-20T11:20:22;5.25;2.50;1.00
75960;PMS7003;64644;48.914;2.254;2023-12-20T11:22:54;4.25;2.00;1.50
75960;PMS7003;64644;48.914;2.254;2023-12-20T11:25:21;3.50;3.50;1.00
75960;PMS7003;64644;48.914;2.254;2023-12-20T11:28:06;5.00;1.50;1.50
75960;PMS7003;64644;48.914;2.254;2023-12-20T11:30:45;2.75;2.75;2.00
75960;PMS7003;64644;48.914;2.254;2023-12-20T11:33:11;2.00;2.00;1.00
75960;PMS7003;64644;48.914;2.254;2023-12-20T11:35:38;5.25;1.75;1.00
75960;PMS7003;64644;48.914;2.254;2023-12-20T11:38:06;2.00;1.50;0.00
75960;PMS7003;64644;48.914;2.254;2023-12-20T11:40:33;3.00;1.00;0.50
75960;PMS7003;64644;48.914;2.254;2023-12-20T11:42:59;1.25;1.25;0.00
75960;PMS7003;64644;48.914;2.254;2023-12-20T11:45:25;2.75;1.00;1.00
75960;PMS7003;64644;48.914;2.254;2023-12-20T11:47:52;6.75;4.75;2.00
75960;PMS7003;64644;48.914;2.254;2023-12-20T11:50:22;1.25;1.00;1.00
75960;PMS7003;64644;48.914;2.254;2023-12-20T11:52:49;1.75;1.75;1.50
75960;PMS7003;64644;48.914;2.254;2023-12-20T11:55:15;5.75;2.00;1.00
75960;PMS7003;64644;48.914;2.254;2023-12-20T11:57:41;2.00;1.00;1.00
75960;PMS7003;64644;48.914;2.254;2023-12-20T12:00:07;2.00;1.00;1.00
75960;PMS7003;64644;48.914;2.254;2023-12-20T12:02:33;2.00;2.00;1.00
75960;PMS7003;64644;48.914;2.254;2023-12-20T12:05:01;1.50;1.50;1.00
75960;PMS7003;64644;48.914;2.254;2023-12-20T12:07:27;2.75;2.00;1.00
75960;PMS7003;64644;48.914;2.254;2023-12-20T12:09:52;2.50;2.50;0.00
75960;PMS7003;64644;48.914;2.254;2023-12-20T12:12:18;2.00;1.00;1.00
75960;PMS7003;64644;48.914;2.254;2023-12-20T12:14:44;2.00;2.00;0.75
75960;PMS7003;64644;48.914;2.254;2023-12-20T12:17:10;2.00;2.00;0.50
75960;PMS7003;64644;48.914;2.254;2023-12-20T12:19:37;5.50;3.50;1.75
75960;PMS7003;64644;48.914;2.254;2023-12-20T12:22:04;1.25;1.00;1.00
75960;PMS7003;64644;48.914;2.254;2023-12-20T12:24:35;4.25;4.25;2.00
75960;PMS7003;64644;48.914;2.254;2023-12-20T12:27:00;7.25;2.75;2.00
75960;PMS7003;64644;48.914;2.254;2023-12-20T12:29:27;3.00;3.00;1.25
75960;PMS7003;64644;48.914;2.254;2023-12-20T12:31:52;4.00;4.00;1.50
75960;PMS7003;64644;48.914;2.254;2023-12-20T12:34:18;2.75;1.75;1.00
75960;PMS7003;64644;48.914;2.254;2023-12-20T12:36:43;7.25;3.25;1.00
75960;PMS7003;64644;48.914;2.254;2023-12-20T12:39:12;6.00;2.00;1.00
75960;PMS7003;64644;48.914;2.254;2023-12-20T12:41:37;4.75;4.75;1.00
75960;PMS7003;64644;48.914;2.254;2023-12-20T12:44:02;5.50;4.00;1.25
75960;PMS7003;64644;48.914;2.254;2023-12-20T12:46:28;4.25;1.75;1.00
75960;PMS7003;64644;48.914;2.254;2023-12-20T12:48:53;1.75;1.75;1.50
75960;PMS7003;64644;48.914;2.254;2023-12-20T12:51:19;2.00;2.00;1.00
75960;PMS7003;64644;48.914;2.254;2023-12-20T12:53:44;5.25;4.75;2.00
75960;PMS7003;64644;48.914;2.254;2023-12-20T12:56:10;2.50;2.50;1.25
75960;PMS7003;64644;48.914;2.254;2023-12-20T12:58:37;5.75;4.50;1.50
75960;PMS7003;64644;48.914;2.254;2023-12-20T13:01:03;3.00;1.75;1.75
75960;PMS7003;64644;48.914;2.254;2023-12-20T13:03:28;7.00;4.50;2.00
75960;PMS7003;64644;48.914;2.254;2023-12-20T13:05:54;3.25;3.25;1.00
75960;PMS7003;64644;48.914;2.254;2023-12-20T13:08:20;2.50;2.00;1.25
75960;PMS7003;64644;48.914;2.254;2023-12-20T13:10:45;4.75;2.75;1.00
75960;PMS7003;64644;48.914;2.254;2023-12-20T13:13:11;3.00;3.00;2.00
75960;PMS7003;64644;48.914;2.254;2023-12-20T13:15:36;4.50;2.75;1.00
75960;PMS7003;64644;48.914;2.254;2023-12-20T13:18:02;3.00;1.25;1.00
75960;PMS7003;64644;48.914;2.254;2023-12-20T13:20:27;4.50;2.75;2.00
75960;PMS7003;64644;48.914;2.254;2023-12-20T13:22:52;6.75;6.00;3.00
75960;PMS7003;64644;48.914;2.254;2023-12-20T13:25:18;2.25;2.25;1.75
75960;PMS7003;64644;48.914;2.254;2023-12-20T13:27:43;1.00;1.00;1.00
75960;PMS7003;64644;48.914;2.254;2023-12-20T13:30:09;3.50;3.00;1.00
75960;PMS7003;64644;48.914;2.254;2023-12-20T13:32:34;2.25;2.25;1.00
75960;PMS7003;64644;48.914;2.254;2023-12-20T13:35:00;3.00;1.75;1.00
75960;PMS7003;64644;48.914;2.254;2023-12-20T13:37:25;2.25;2.25;1.00
75960;PMS7003;64644;48.914;2.254;2023-12-20T13:39:51;2.25;2.25;1.50
75960;PMS7003;64644;48.914;2.254;2023-12-20T13:42:16;5.00;2.00;2.00
75960;PMS7003;64644;48.914;2.254;2023-12-20T13:44:41;2.50;1.75;1.00
75960;PMS7003;64644;48.914;2.254;2023-12-20T13:47:07;0.00;0.00;0.00
75960;PMS7003;64644;48.914;2.254;2023-12-20T13:49:32;0.50;0.50;0.25
75960;PMS7003;64644;48.914;2.254;2023-12-20T13:51:58;1.00;1.00;0.50
75960;PMS7003;64644;48.914;2.254;2023-12-20T13:54:24;1.00;1.00;0.00
75960;PMS7003;64644;48.914;2.254;2023-12-20T13:56:49;1.75;1.75;0.50
75960;PMS7003;64644;48.914;2.254;2023-12-20T13:59:15;1.50;1.00;1.00
75960;PMS7003;64644;48.914;2.254;2023-12-20T14:01:41;3.00;1.00;0.25
75960;PMS7003;64644;48.914;2.254;2023-12-20T14:04:06;0.00;0.00;0.00
75960;PMS7003;64644;48.914;2.254;2023-12-20T14:06:32;1.00;0.25;0.00
75960;PMS7003;64644;48.914;2.254;2023-12-20T14:08:58;5.25;2.00;0.00
75960;PMS7003;64644;48.914;2.254;2023-12-20T14:11:27;0.00;0.00;0.00
75960;PMS7003;64644;48.914;2.254;2023-12-20T14:13:54;1.00;1.00;0.00
75960;PMS7003;64644;48.914;2.254;2023-12-20T14:16:23;1.00;1.00;0.00
75960;PMS7003;64644;48.914;2.254;2023-12-20T14:18:48;2.75;1.25;1.00
75960;PMS7003;64644;48.914;2.254;2023-12-20T14:21:14;1.00;0.00;0.00
75960;PMS7003;64644;48.914;2.254;2023-12-20T14:23:39;1.00;1.00;0.50
75960;PMS7003;64644;48.914;2.254;2023-12-20T14:26:04;1.00;1.00;1.00
75960;PMS7003;64644;48.914;2.254;2023-12-20T14:28:30;1.50;1.00;1.00
75960;PMS7003;64644;48.914;2.254;2023-12-20T14:30:55;0.75;0.75;0.00
75960;PMS7003;64644;48.914;2.254;2023-12-20T14:33:21;0.50;0.50;0.25
75960;PMS7003;64644;48.914;2.254;2023-12-20T14:35:46;3.50;2.00;0.75